createdAt,value
2022-09-26T00:01:43.149Z,12.68
2022-09-26T00:05:45.169Z,11.55
2022-09-26T00:09:47.284Z,9.32
2022-09-26T00:13:53.356Z,15.55
2022-09-26T00:17:55.330Z,12.32
2022-09-26T00:21:57.676Z,10.82
2022-09-26T00:25:59.991Z,8.27
2022-09-26T00:30:01.977Z,10.15
2022-09-26T00:34:04.837Z,10.60
2022-09-26T00:38:07.541Z,9.32
2022-09-26T00:42:15.238Z,10.75
2022-09-26T00:46:38.375Z,10.77
2022-09-26T00:50:42.010Z,8.05
2022-09-26T00:54:49.000Z,10.27
2022-09-26T00:59:10.740Z,9.85
2022-09-26T01:03:14.639Z,5.72
2022-09-26T01:07:22.363Z,7.10
2022-09-26T01:11:24.431Z,10.40
2022-09-26T01:15:26.354Z,8.60
2022-09-26T01:19:50.464Z,8.73
2022-09-26T01:24:17.951Z,9.32
2022-09-26T01:28:42.675Z,8.63
2022-09-26T01:33:15.838Z,11.07
2022-09-26T01:37:37.315Z,13.43
2022-09-26T01:41:51.588Z,16.00
2022-09-26T01:46:03.525Z,9.85
2022-09-26T01:50:22.989Z,11.10
2022-09-26T01:54:36.359Z,11.38
2022-09-26T01:58:47.462Z,12.45
2022-09-26T02:02:50.878Z,12.43
2022-09-26T02:11:10.861Z,7.22
2022-09-26T02:15:18.407Z,11.20
2022-09-26T02:19:25.897Z,11.02
2022-09-26T02:23:28.796Z,7.10
2022-09-26T02:27:31.088Z,9.68
2022-09-26T02:31:38.149Z,8.48
2022-09-26T02:35:55.294Z,9.10
2022-09-26T02:39:59.308Z,10.40
2022-09-26T02:44:04.942Z,13.18
2022-09-26T02:48:50.505Z,11.65
2022-09-26T02:53:21.031Z,13.45
2022-09-26T02:58:05.597Z,12.60
2022-09-26T03:02:17.657Z,13.93
2022-09-26T03:06:44.456Z,12.45
2022-09-26T03:10:48.523Z,17.17
2022-09-26T03:14:55.406Z,13.68
2022-09-26T03:19:16.873Z,13.88
2022-09-26T03:23:23.271Z,15.07
2022-09-26T03:27:25.832Z,21.42
2022-09-26T03:31:29.590Z,11.85
2022-09-26T03:35:36.271Z,15.25
2022-09-26T03:39:38.550Z,15.00
2022-09-26T03:44:04.600Z,9.70
2022-09-26T03:48:26.890Z,22.58
2022-09-26T03:52:29.604Z,33.40
2022-09-26T03:56:32.503Z,48.47
2022-09-26T04:00:34.972Z,43.75
2022-09-26T04:04:37.420Z,101.60
2022-09-26T04:08:41.870Z,165.38
2022-09-26T04:12:46.225Z,130.15
2022-09-26T04:16:49.491Z,97.15
2022-09-26T04:25:17.037Z,100.28
2022-09-26T04:29:19.301Z,65.97
2022-09-26T04:33:32.222Z,29.58
2022-09-26T04:37:43.691Z,14.70
2022-09-26T04:41:46.020Z,7.45
2022-09-26T04:45:49.169Z,5.50
2022-09-26T04:49:54.432Z,6.13
2022-09-26T04:53:56.624Z,6.85
2022-09-26T05:06:17.781Z,7.07
2022-09-26T05:19:21.420Z,5.28
2022-09-26T05:24:11.167Z,9.80
2022-09-26T05:28:13.927Z,9.23
2022-09-26T05:32:19.195Z,7.95
2022-09-26T05:36:21.353Z,7.80
2022-09-26T05:40:41.974Z,11.23
2022-09-26T05:44:44.316Z,6.75
2022-09-26T05:48:46.558Z,6.25
2022-09-26T05:53:00.780Z,11.23
2022-09-26T05:57:03.424Z,10.80
2022-09-26T06:01:19.127Z,6.03
2022-09-26T06:05:25.889Z,6.03
2022-09-26T06:09:46.197Z,6.35
2022-09-26T06:13:59.808Z,5.70
2022-09-26T06:18:04.540Z,10.35
2022-09-26T06:22:06.807Z,9.18
2022-09-26T06:26:25.470Z,12.15
2022-09-26T06:30:28.622Z,6.57
2022-09-26T06:34:41.815Z,9.10
2022-09-26T06:39:14.900Z,8.07
2022-09-26T06:43:17.218Z,7.65
2022-09-26T06:47:38.420Z,15.05
2022-09-26T06:52:03.323Z,11.65
2022-09-26T06:56:06.095Z,9.45
2022-09-26T07:00:14.726Z,21.42
2022-09-26T07:04:49.555Z,11.48
2022-09-26T07:09:03.015Z,12.57
2022-09-26T07:13:18.180Z,13.63
2022-09-26T07:17:21.384Z,9.90
2022-09-26T07:21:47.834Z,11.45
2022-09-26T07:26:03.029Z,11.18
2022-09-26T07:30:06.856Z,10.13
2022-09-26T07:34:18.489Z,8.57
2022-09-26T07:38:35.921Z,6.35
2022-09-26T07:43:19.508Z,6.30
2022-09-26T07:47:42.842Z,7.63
2022-09-26T07:52:04.883Z,6.20
2022-09-26T07:56:22.847Z,9.38
2022-09-26T08:01:03.571Z,6.70
2022-09-26T08:05:25.533Z,5.43
2022-09-26T08:09:28.607Z,7.20
2022-09-26T08:13:49.992Z,5.10
2022-09-26T08:18:11.842Z,5.20
2022-09-26T08:22:14.657Z,5.68
2022-09-26T08:26:24.077Z,5.03
2022-09-26T08:30:31.927Z,8.75
2022-09-26T08:34:38.129Z,6.28
2022-09-26T08:39:04.963Z,4.07
2022-09-26T08:44:35.151Z,3.95
2022-09-26T08:49:14.627Z,4.68
2022-09-26T08:53:35.379Z,3.35
2022-09-26T08:57:45.982Z,3.47
2022-09-26T09:01:51.936Z,3.75
2022-09-26T09:07:05.532Z,2.70
2022-09-26T09:11:57.526Z,3.65
2022-09-26T09:16:19.586Z,3.78
2022-09-26T09:20:49.639Z,3.38
2022-09-26T09:25:50.022Z,3.30
2022-09-26T09:30:56.830Z,2.33
2022-09-26T09:35:16.046Z,1.80
2022-09-26T09:40:35.815Z,2.63
2022-09-26T09:44:52.626Z,2.33
2022-09-26T09:49:21.881Z,2.63
2022-09-26T09:53:50.130Z,2.05
2022-09-26T09:58:12.346Z,4.30
2022-09-26T10:02:35.339Z,4.50
2022-09-26T10:06:46.016Z,3.13
2022-09-26T10:11:11.644Z,2.15
2022-09-26T10:15:32.479Z,2.15
2022-09-26T10:19:45.175Z,2.05
2022-09-26T10:23:50.651Z,2.33
2022-09-26T10:28:27.244Z,3.63
2022-09-26T10:32:30.308Z,2.25
2022-09-26T10:36:53.106Z,2.92
2022-09-26T10:41:01.400Z,2.73
2022-09-26T10:45:16.060Z,4.10
2022-09-26T10:50:00.783Z,1.80
2022-09-26T10:54:41.929Z,1.92
2022-09-26T10:58:46.749Z,1.95
2022-09-26T11:02:52.343Z,1.85
2022-09-26T11:06:54.930Z,2.65
2022-09-26T11:11:23.958Z,3.72
2022-09-26T11:15:40.041Z,2.28
2022-09-26T11:20:03.132Z,1.95
2022-09-26T11:24:29.227Z,2.30
2022-09-26T11:29:02.137Z,1.85
2022-09-26T11:33:15.890Z,2.08
2022-09-26T11:38:05.539Z,1.80
2022-09-26T11:42:26.643Z,1.83
2022-09-26T11:47:02.245Z,2.70
2022-09-26T11:51:34.776Z,1.20
2022-09-26T11:56:01.595Z,2.10
2022-09-26T12:00:15.819Z,1.15
2022-09-26T12:04:36.223Z,1.05
2022-09-26T12:08:47.658Z,2.40
2022-09-26T12:13:08.336Z,9.68
2022-09-26T12:17:47.865Z,1.05
2022-09-26T12:22:29.308Z,1.13
2022-09-26T12:26:49.303Z,3.58
2022-09-26T12:31:27.204Z,5.15
2022-09-26T12:35:32.791Z,0.90
2022-09-26T12:39:57.454Z,1.60
2022-09-26T12:44:08.367Z,1.40
2022-09-26T12:48:25.378Z,1.65
2022-09-26T12:52:58.045Z,1.23
2022-09-26T12:57:17.371Z,3.53
2022-09-26T13:01:32.575Z,1.77
2022-09-26T13:05:56.747Z,1.52
2022-09-26T13:14:45.133Z,1.17
2022-09-26T13:18:54.441Z,2.92
2022-09-26T13:23:09.801Z,8.38
2022-09-26T13:27:21.175Z,4.95
2022-09-26T13:31:33.685Z,5.45
2022-09-26T13:35:39.674Z,3.33
2022-09-26T13:39:51.903Z,6.40
2022-09-26T13:44:33.112Z,1.42
2022-09-26T13:49:02.784Z,1.95
2022-09-26T13:53:34.721Z,1.35
2022-09-26T13:58:03.917Z,1.35
2022-09-26T14:02:29.599Z,2.58
2022-09-26T14:06:31.677Z,3.03
2022-09-26T14:10:39.617Z,1.05
2022-09-26T14:14:50.363Z,2.92
2022-09-26T14:19:11.153Z,6.28
2022-09-26T14:23:35.196Z,1.42
2022-09-26T14:27:37.378Z,3.20
2022-09-26T14:31:40.787Z,1.63
2022-09-26T14:35:43.717Z,4.57
2022-09-26T14:39:46.772Z,3.03
2022-09-26T14:43:51.035Z,1.63
2022-09-26T14:48:04.709Z,1.88
2022-09-26T14:52:19.822Z,4.38
2022-09-26T14:56:29.408Z,1.52
2022-09-26T15:00:36.007Z,1.33
2022-09-26T15:04:38.737Z,5.72
2022-09-26T15:08:41.157Z,3.10
2022-09-26T15:12:48.273Z,2.90
2022-09-26T15:16:53.814Z,2.22
2022-09-26T15:21:05.934Z,1.77
2022-09-26T15:25:21.692Z,1.73
2022-09-26T15:29:23.827Z,17.10
2022-09-26T15:33:26.425Z,2.00
2022-09-26T15:37:35.161Z,4.85
2022-09-26T15:42:03.218Z,3.67
2022-09-26T15:46:20.565Z,2.72
2022-09-26T15:50:36.431Z,2.05
2022-09-26T15:54:38.710Z,4.88
2022-09-26T15:59:02.570Z,6.40
2022-09-26T16:03:27.454Z,5.50
2022-09-26T16:07:32.704Z,4.68
2022-09-26T16:11:53.380Z,4.72
2022-09-26T16:16:08.755Z,5.13
2022-09-26T16:20:13.747Z,4.78
2022-09-26T16:24:30.225Z,5.15
2022-09-26T16:28:42.597Z,37.67
2022-09-26T16:32:44.830Z,25.08
2022-09-26T16:36:47.648Z,11.35
2022-09-26T16:41:04.147Z,5.50
2022-09-26T16:45:07.387Z,4.50
2022-09-26T16:49:29.775Z,4.30
2022-09-26T16:53:31.771Z,3.88
2022-09-26T16:57:37.308Z,4.65
2022-09-26T17:01:54.650Z,3.80
2022-09-26T17:05:59.001Z,4.53
2022-09-26T17:10:01.177Z,7.03
2022-09-26T17:14:03.312Z,7.40
2022-09-26T17:18:08.340Z,8.07
2022-09-26T17:22:14.733Z,14.65
2022-09-26T17:26:21.629Z,24.40
2022-09-26T17:30:23.878Z,9.32
2022-09-26T17:34:28.545Z,8.90
2022-09-26T17:38:30.675Z,6.00
2022-09-26T17:42:32.705Z,5.38
2022-09-26T17:46:38.283Z,8.43
2022-09-26T17:50:41.823Z,9.95
2022-09-26T17:54:44.321Z,7.28
2022-09-26T17:58:47.940Z,6.70
2022-09-26T18:02:55.429Z,6.68
2022-09-26T18:07:02.030Z,8.38
2022-09-26T18:11:08.156Z,11.25
2022-09-26T18:15:21.227Z,6.93
2022-09-26T18:19:23.256Z,10.73
2022-09-26T18:23:29.198Z,10.75
2022-09-26T18:27:36.886Z,9.35
2022-09-26T18:31:41.568Z,10.13
2022-09-26T18:35:45.568Z,11.80
2022-09-26T18:39:52.136Z,7.43
2022-09-26T18:44:00.192Z,8.18
2022-09-26T18:48:08.162Z,11.80
2022-09-26T18:52:15.119Z,5.72
2022-09-26T18:56:35.687Z,5.95
2022-09-26T19:00:37.653Z,10.68
2022-09-26T19:04:40.246Z,6.65
2022-09-26T19:08:50.965Z,9.30
2022-09-26T19:12:53.079Z,3.95
2022-09-26T19:16:56.088Z,7.20
2022-09-26T19:20:58.570Z,5.78
2022-09-26T19:25:01.693Z,3.95
2022-09-26T19:29:11.944Z,4.70
2022-09-26T19:33:14.307Z,5.13
2022-09-26T19:37:16.300Z,6.05
2022-09-26T19:41:18.342Z,7.43
2022-09-26T19:45:20.696Z,5.07
2022-09-26T19:49:24.532Z,8.75
2022-09-26T19:53:27.428Z,8.55
2022-09-26T19:57:29.447Z,4.72
2022-09-26T20:01:31.578Z,4.82
2022-09-26T20:05:34.457Z,4.15
2022-09-26T20:09:36.443Z,3.28
2022-09-26T20:13:57.072Z,8.38
2022-09-26T20:18:00.367Z,6.90
2022-09-26T20:22:04.513Z,10.38
2022-09-26T20:26:08.578Z,5.18
2022-09-26T20:30:34.160Z,4.10
2022-09-26T20:34:36.723Z,5.13
2022-09-26T20:38:46.019Z,3.50
2022-09-26T20:42:50.308Z,5.70
2022-09-26T20:50:56.616Z,3.75
2022-09-26T20:54:58.661Z,4.82
2022-09-26T20:59:00.595Z,3.90
2022-09-26T21:03:02.523Z,5.53
2022-09-26T21:07:04.545Z,4.25
2022-09-26T21:11:09.833Z,6.38
2022-09-26T21:15:12.272Z,4.50
2022-09-26T21:19:24.599Z,7.10
2022-09-26T21:23:43.394Z,4.88
2022-09-26T21:27:56.121Z,7.00
2022-09-26T21:32:03.413Z,3.90
2022-09-26T21:36:05.552Z,4.72
2022-09-26T21:40:10.348Z,3.70
2022-09-26T21:44:23.644Z,6.20
2022-09-26T21:48:26.300Z,8.07
2022-09-26T21:52:41.787Z,3.38
2022-09-26T21:56:50.261Z,9.95
2022-09-26T22:00:52.202Z,5.13
2022-09-26T22:04:54.265Z,8.77
2022-09-26T22:08:56.577Z,4.80
2022-09-26T22:12:58.631Z,7.00
2022-09-26T22:17:00.882Z,5.57
2022-09-26T22:21:04.890Z,4.90
2022-09-26T22:25:07.223Z,11.27
2022-09-26T22:29:09.280Z,6.53
2022-09-26T22:33:11.410Z,11.57
2022-09-26T22:37:13.366Z,5.18
2022-09-26T22:41:15.308Z,4.75
2022-09-26T22:45:17.664Z,6.03
2022-09-26T22:49:19.667Z,6.55
2022-09-26T22:53:21.750Z,8.43
2022-09-26T22:57:23.743Z,2.92
2022-09-26T23:01:27.938Z,4.68
2022-09-26T23:09:32.732Z,12.88
2022-09-26T23:13:35.671Z,4.57
2022-09-26T23:17:37.878Z,4.68
2022-09-26T23:21:39.916Z,6.43
2022-09-26T23:25:46.988Z,8.88
2022-09-26T23:29:49.036Z,7.03
2022-09-26T23:33:52.275Z,3.80
2022-09-26T23:37:56.384Z,4.75
2022-09-26T23:41:58.871Z,4.18
2022-09-26T23:46:00.886Z,5.20
2022-09-26T23:50:03.930Z,9.27
2022-09-26T23:54:06.229Z,6.60
2022-09-26T23:58:08.819Z,2.95
